Terminal Aerodrome Forecast
Issued by NWS Goodland, KS

Home | Current Version | Previous Version | Text Only | Print | Product List | Glossary On
Versions: 1 2 3 4 5 6 7 8 9 10 11 12 13 14 15
000
FTUS43 KGLD 230524
TAFGLD
TAF
KGLD 230524Z 2306/2406 VRB06KT P6SM TSRA BKN040CB
      TEMPO 2306/2307 35013G20KT 4SM TSRA OVC030CB
     FM230700 17009KT P6SM VCSH SCT030 BKN050
     FM231000 VRB05KT 5SM BR SCT005 BKN015
      TEMPO 2311/2314 1SM BR BKN005
     FM231400 VRB06KT P6SM SCT250=

USA.gov is the U.S. government's official web portal to all federal, state and local government web resources and services.